Time;durP1;ratioP1;P1;durP2;ratioP2;P2;SDS_P1;SDS_P2;PMS_P1;PMS_P2;Temp;Humidity;BMP_temperature;BMP_pressure;BME280_temperature;BME280_humidity;BME280_pressure;Samples;Min_cycle;Max_cycle;Signal;HPM_P1;HPM_P2
2022/06/17 00:01:55;;;;;;;6.93;5.40;;;16.20;99.90;;;;;;5011953;28;20204;-64
2022/06/17 00:04:22;;;;;;;11.93;6.40;;;16.20;99.90;;;;;;5022876;28;20541;-68
2022/06/17 00:06:53;;;;;;;8.05;5.75;;;16.10;99.90;;;;;;5007867;28;20203;-69
2022/06/17 00:09:23;;;;;;;4.82;4.30;;;16.00;99.90;;;;;;5012757;28;20221;-68
2022/06/17 00:11:50;;;;;;;9.23;6.22;;;15.90;99.90;;;;;;5023431;28;20288;-69
2022/06/17 00:14:20;;;;;;;8.30;6.00;;;15.80;99.90;;;;;;5024258;28;20204;-66
2022/06/17 00:16:47;;;;;;;7.97;5.70;;;15.80;99.90;;;;;;5012089;28;20205;-68
2022/06/17 00:19:15;;;;;;;11.48;6.00;;;15.70;99.90;;;;;;5023570;28;21677;-71
2022/06/17 00:21:45;;;;;;;9.82;6.32;;;15.70;99.90;;;;;;5023893;28;20192;-69
2022/06/17 00:24:16;;;;;;;7.32;5.53;;;15.70;99.90;;;;;;5012282;28;20209;-70
2022/06/17 00:26:45;;;;;;;9.85;6.13;;;15.70;99.90;;;;;;5013138;28;20213;-70
2022/06/17 00:29:18;;;;;;;5.90;5.10;;;15.60;99.90;;;;;;5010878;28;20359;-69
2022/06/17 00:31:45;;;;;;;6.82;6.15;;;15.60;99.90;;;;;;5004635;28;20216;-70
2022/06/17 00:34:12;;;;;;;11.00;6.85;;;15.60;99.90;;;;;;5024377;28;20736;-68
2022/06/17 00:36:40;;;;;;;8.75;5.88;;;15.60;99.90;;;;;;5011124;28;20205;-69
2022/06/17 00:39:14;;;;;;;7.40;6.70;;;15.50;99.90;;;;;;5014385;28;20240;-70
2022/06/17 00:41:46;;;;;;;5.78;4.78;;;15.40;99.90;;;;;;5013587;28;20554;-67
2022/06/17 00:44:25;;;;;;;6.10;5.50;;;15.40;99.90;;;;;;5022269;28;20308;-68
2022/06/17 00:46:58;;;;;;;9.07;5.70;;;15.40;99.90;;;;;;5014732;28;20211;-69
2022/06/17 00:49:31;;;;;;;10.35;5.50;;;15.30;99.90;;;;;;5007762;28;20224;-67
2022/06/17 00:52:03;;;;;;;8.98;6.05;;;15.30;99.90;;;;;;5025725;28;20231;-67
2022/06/17 00:54:35;;;;;;;6.10;4.80;;;15.20;99.90;;;;;;5007054;28;20211;-68
2022/06/17 00:57:18;;;;;;;9.35;5.80;;;15.20;99.90;;;;;;5014010;28;20251;-69
2022/06/17 01:00:00;;;;;;;6.13;5.22;;;15.20;99.90;;;;;;5017059;28;20586;-69
2022/06/17 01:02:28;;;;;;;7.75;5.20;;;15.10;99.90;;;;;;5020298;28;20229;-68
2022/06/17 01:04:56;;;;;;;7.47;5.60;;;15.10;99.90;;;;;;5015662;28;20196;-69
2022/06/17 01:07:28;;;;;;;5.00;4.50;;;15.00;99.90;;;;;;5014648;28;20202;-69
2022/06/17 01:10:01;;;;;;;6.85;6.15;;;15.00;99.90;;;;;;5011226;28;20589;-69
2022/06/17 01:12:36;;;;;;;8.90;6.53;;;15.00;99.90;;;;;;5012197;28;20197;-68
2022/06/17 01:15:04;;;;;;;10.98;6.00;;;15.00;99.90;;;;;;5010996;28;20257;-68
2022/06/17 01:17:32;;;;;;;5.45;4.57;;;15.00;99.90;;;;;;5011627;28;20208;-68
2022/06/17 01:20:02;;;;;;;6.13;5.35;;;15.00;99.90;;;;;;5006772;28;20233;-71
2022/06/17 01:22:39;;;;;;;7.50;5.30;;;15.00;99.90;;;;;;5010824;28;20556;-70
2022/06/17 01:25:09;;;;;;;7.55;5.40;;;15.00;99.90;;;;;;5019196;28;20567;-67
2022/06/17 01:27:39;;;;;;;6.10;5.50;;;14.90;99.90;;;;;;5012759;28;20279;-69
2022/06/17 01:30:09;;;;;;;5.90;5.30;;;14.90;99.90;;;;;;5015751;28;20271;-69
2022/06/17 01:32:40;;;;;;;8.90;5.63;;;14.90;99.90;;;;;;5017825;28;20197;-68
2022/06/17 01:35:09;;;;;;;7.68;5.32;;;14.90;99.90;;;;;;5018203;28;20660;-68
2022/06/17 01:37:36;;;;;;;12.20;6.78;;;14.90;99.90;;;;;;5017075;28;20206;-65
2022/06/17 01:40:06;;;;;;;7.55;6.05;;;14.90;99.90;;;;;;5019956;28;20599;-68
2022/06/17 01:42:34;;;;;;;5.90;5.30;;;14.80;99.90;;;;;;5015053;28;20207;-71
2022/06/17 01:45:01;;;;;;;8.02;6.32;;;14.80;99.90;;;;;;5017562;28;20657;-67
2022/06/17 01:47:30;;;;;;;6.15;5.50;;;14.80;99.90;;;;;;5019511;28;20567;-66
2022/06/17 01:50:05;;;;;;;9.00;5.85;;;14.80;99.90;;;;;;5024244;28;20217;-70
2022/06/17 01:52:35;;;;;;;7.00;5.80;;;14.80;99.90;;;;;;5009257;28;20204;-70
2022/06/17 01:55:11;;;;;;;8.00;6.70;;;14.80;99.90;;;;;;5014440;28;20204;-68
2022/06/17 01:57:48;;;;;;;7.85;6.22;;;14.80;99.90;;;;;;5015451;28;20625;-70
2022/06/17 02:00:19;;;;;;;8.02;6.03;;;14.70;99.90;;;;;;5012473;28;20336;-66
2022/06/17 02:02:49;;;;;;;9.55;6.40;;;14.70;99.90;;;;;;5012101;28;20204;-68
2022/06/17 02:05:16;;;;;;;6.88;6.18;;;14.70;99.90;;;;;;5016519;28;20601;-67
2022/06/17 02:07:52;;;;;;;7.32;6.53;;;14.70;99.90;;;;;;5018907;28;20258;-68
2022/06/17 02:10:21;;;;;;;6.90;6.20;;;14.70;99.90;;;;;;5012878;28;20232;-68
2022/06/17 02:12:48;;;;;;;9.48;5.80;;;14.60;99.90;;;;;;5020663;28;20208;-66
2022/06/17 02:15:16;;;;;;;7.53;6.10;;;14.60;99.90;;;;;;5025239;28;20205;-65
2022/06/17 02:17:51;;;;;;;9.15;6.13;;;14.50;99.90;;;;;;5030436;28;20291;-66
2022/06/17 02:20:20;;;;;;;7.93;6.68;;;14.50;99.90;;;;;;5030121;28;20304;-68
2022/06/17 02:22:48;;;;;;;9.57;6.10;;;14.50;99.90;;;;;;5026655;28;20291;-69
2022/06/17 02:25:19;;;;;;;7.93;6.53;;;14.50;99.90;;;;;;5016180;28;20287;-70
2022/06/17 02:27:51;;;;;;;7.35;6.45;;;14.40;99.90;;;;;;5015195;28;20563;-70
2022/06/17 02:30:19;;;;;;;8.75;6.05;;;14.40;99.90;;;;;;5013809;28;20243;-69
2022/06/17 02:32:47;;;;;;;8.90;7.05;;;14.40;99.90;;;;;;5005215;28;20289;-69
2022/06/17 02:35:25;;;;;;;8.32;6.50;;;14.40;99.90;;;;;;5012683;28;20658;-69
2022/06/17 02:37:53;;;;;;;7.00;5.95;;;14.40;99.90;;;;;;5016311;28;20200;-69
2022/06/17 02:40:29;;;;;;;8.25;6.05;;;14.40;99.90;;;;;;5017564;28;20227;-70
2022/06/17 02:43:00;;;;;;;8.95;6.60;;;14.40;99.90;;;;;;5025656;28;20208;-72
2022/06/17 02:45:31;;;;;;;6.22;5.63;;;14.40;99.90;;;;;;5010248;28;20200;-68
2022/06/17 02:47:59;;;;;;;6.70;5.97;;;14.40;99.90;;;;;;5018679;28;20331;-71
2022/06/17 02:50:30;;;;;;;11.93;7.57;;;14.40;99.90;;;;;;5012416;28;20217;-67
2022/06/17 02:53:00;;;;;;;7.90;6.53;;;14.40;99.90;;;;;;5014596;28;20216;-66
2022/06/17 02:55:32;;;;;;;7.57;5.65;;;14.40;99.90;;;;;;5008056;28;20296;-67
2022/06/17 02:58:06;;;;;;;8.82;6.50;;;14.50;99.90;;;;;;5018161;28;20292;-66
2022/06/17 03:00:33;;;;;;;7.68;6.88;;;14.50;99.90;;;;;;5013811;28;20691;-68
2022/06/17 03:03:04;;;;;;;9.45;7.40;;;14.50;99.90;;;;;;5019027;28;20228;-70
2022/06/17 03:05:37;;;;;;;7.88;6.75;;;14.60;99.90;;;;;;5015021;28;20614;-71
2022/06/17 03:08:17;;;;;;;7.25;6.30;;;14.50;99.90;;;;;;5011080;28;20295;-68
2022/06/17 03:10:44;;;;;;;6.82;6.15;;;14.60;99.90;;;;;;5012838;28;20316;-69
2022/06/17 03:13:17;;;;;;;8.35;7.55;;;14.60;99.90;;;;;;5014829;28;20567;-68
2022/06/17 03:15:47;;;;;;;8.45;7.43;;;14.60;99.90;;;;;;5014054;28;20209;-69
2022/06/17 03:18:14;;;;;;;10.43;7.68;;;14.60;99.90;;;;;;5012900;28;20233;-67
2022/06/17 03:20:43;;;;;;;8.15;7.35;;;14.60;99.90;;;;;;5013733;28;20323;-68
2022/06/17 03:23:13;;;;;;;12.27;7.32;;;14.50;99.90;;;;;;5012921;28;20244;-68
2022/06/17 03:25:46;;;;;;;7.40;6.70;;;14.50;99.90;;;;;;5014691;28;20196;-70
2022/06/17 03:28:20;;;;;;;7.65;6.85;;;14.50;99.90;;;;;;5013636;28;20201;-67
2022/06/17 03:30:51;;;;;;;9.85;7.55;;;14.40;99.90;;;;;;5010381;28;20231;-68
2022/06/17 03:33:22;;;;;;;13.85;8.07;;;14.40;99.90;;;;;;5014472;28;20213;-66
2022/06/17 03:35:54;;;;;;;8.27;7.35;;;14.40;99.90;;;;;;5014671;28;20280;-68
2022/06/17 03:38:29;;;;;;;9.50;7.35;;;14.50;99.90;;;;;;5013032;28;20193;-71
2022/06/17 03:41:01;;;;;;;9.40;8.50;;;14.60;99.90;;;;;;5025406;28;20630;-66
2022/06/17 03:43:34;;;;;;;10.15;7.85;;;14.60;99.90;;;;;;5011734;28;20652;-68
2022/06/17 03:46:03;;;;;;;10.38;8.00;;;14.80;99.90;;;;;;5015199;28;20200;-69
2022/06/17 03:48:37;;;;;;;10.48;7.40;;;14.90;99.90;;;;;;5006008;28;20315;-67
2022/06/17 03:51:04;;;;;;;10.55;7.80;;;14.90;99.90;;;;;;5013813;28;20224;-71
2022/06/17 03:53:33;;;;;;;8.90;7.88;;;15.00;99.90;;;;;;5002984;28;20209;-69
2022/06/17 03:56:06;;;;;;;8.45;7.65;;;15.00;99.90;;;;;;5016403;28;20208;-69
2022/06/17 03:58:37;;;;;;;8.15;7.45;;;14.90;99.90;;;;;;5012862;28;20201;-67
2022/06/17 04:01:14;;;;;;;10.98;8.95;;;14.80;99.90;;;;;;5010194;28;20319;-68
2022/06/17 04:03:43;;;;;;;11.38;8.70;;;15.10;99.90;;;;;;5020068;28;20636;-69
2022/06/17 04:06:13;;;;;;;11.15;9.00;;;15.30;99.90;;;;;;5019169;28;20319;-67
2022/06/17 04:08:56;;;;;;;15.13;8.48;;;15.90;99.90;;;;;;5007155;28;20249;-71
2022/06/17 04:11:25;;;;;;;10.60;7.80;;;16.90;99.90;;;;;;5024559;28;20214;-67
2022/06/17 04:13:56;;;;;;;8.98;7.80;;;17.60;99.90;;;;;;5017987;28;20202;-69
2022/06/17 04:16:29;;;;;;;11.23;9.00;;;18.30;99.90;;;;;;5009316;28;20212;-67
2022/06/17 04:19:03;;;;;;;12.80;8.00;;;18.90;99.90;;;;;;5028354;28;20504;-68
2022/06/17 04:21:30;;;;;;;9.33;7.20;;;19.20;97.50;;;;;;5018620;28;20451;-68
2022/06/17 04:23:58;;;;;;;8.70;6.73;;;19.50;97.20;;;;;;5018833;28;21020;-69
2022/06/17 04:26:30;;;;;;;9.07;7.80;;;19.70;95.70;;;;;;5015797;28;20448;-69
2022/06/17 04:29:02;;;;;;;9.50;8.10;;;20.00;94.40;;;;;;5012501;28;20575;-69
2022/06/17 04:31:32;;;;;;;11.87;8.90;;;20.00;93.90;;;;;;5004872;28;20456;-68
2022/06/17 04:34:11;;;;;;;9.87;8.33;;;20.20;93.60;;;;;;5005842;28;20448;-68
2022/06/17 04:36:44;;;;;;;9.63;7.10;;;20.10;93.00;;;;;;5005149;28;20458;-68
2022/06/17 04:39:21;;;;;;;8.90;8.10;;;20.50;93.00;;;;;;5014370;28;20963;-69
2022/06/17 04:41:51;;;;;;;12.00;8.27;;;20.90;91.70;;;;;;5024352;28;20484;-67
2022/06/17 04:44:20;;;;;;;8.77;7.87;;;21.00;91.90;;;;;;5012074;28;20504;-71
2022/06/17 04:46:52;;;;;;;8.27;7.47;;;21.50;91.30;;;;;;5026319;28;20453;-67
2022/06/17 04:49:22;;;;;;;9.07;7.10;;;22.30;90.40;;;;;;5025300;28;20575;-66
2022/06/17 04:51:50;;;;;;;8.80;7.43;;;23.00;88.30;;;;;;5008913;28;20476;-67
2022/06/17 04:54:18;;;;;;;10.37;6.90;;;23.30;85.10;;;;;;5022597;28;20476;-70
2022/06/17 04:56:47;;;;;;;9.70;7.60;;;23.50;83.90;;;;;;5019232;28;20468;-66
2022/06/17 04:59:29;;;;;;;11.97;8.87;;;24.00;82.70;;;;;;5020138;28;20526;-67
2022/06/17 05:01:57;;;;;;;8.77;7.90;;;24.40;81.70;;;;;;5012976;28;20527;-69
2022/06/17 05:04:25;;;;;;;13.90;7.00;;;24.70;80.40;;;;;;5021922;28;20949;-69
2022/06/17 05:06:52;;;;;;;8.67;7.10;;;25.10;79.40;;;;;;5020530;28;20453;-70
2022/06/17 05:09:23;;;;;;;14.17;7.73;;;25.70;77.00;;;;;;5018398;28;20498;-70
2022/06/17 05:11:54;;;;;;;9.30;7.80;;;26.30;75.30;;;;;;5023359;28;20501;-69
2022/06/17 05:14:32;;;;;;;9.47;6.00;;;26.60;73.60;;;;;;5026898;28;20478;-69
2022/06/17 05:16:59;;;;;;;7.03;6.03;;;26.40;73.70;;;;;;5022007;28;21257;-69
2022/06/17 05:19:26;;;;;;;10.30;6.37;;;26.90;71.80;;;;;;5021277;28;20559;-69
2022/06/17 05:21:53;;;;;;;7.70;5.97;;;26.80;71.30;;;;;;5022192;28;20459;-72
2022/06/17 05:24:21;;;;;;;8.00;6.07;;;27.20;70.70;;;;;;5028416;28;20465;-69
2022/06/17 05:26:48;;;;;;;7.03;6.37;;;27.50;69.50;;;;;;5020010;28;20990;-68
2022/06/17 05:29:15;;;;;;;7.10;6.40;;;27.50;68.20;;;;;;5019754;28;20570;-69
2022/06/17 05:31:49;;;;;;;7.33;6.73;;;27.30;68.50;;;;;;5010352;28;20484;-70
2022/06/17 05:34:17;;;;;;;8.50;6.80;;;27.10;68.70;;;;;;5018234;28;20816;-69
2022/06/17 05:36:45;;;;;;;6.60;5.90;;;27.20;68.70;;;;;;5021572;28;20458;-71
2022/06/17 05:39:12;;;;;;;12.13;6.20;;;27.30;68.20;;;;;;5016578;28;20494;-70
2022/06/17 05:41:39;;;;;;;9.30;6.17;;;27.10;67.90;;;;;;5016209;28;20497;-67
2022/06/17 05:44:06;;;;;;;6.03;5.43;;;27.30;69.10;;;;;;5019037;28;20530;-68
2022/06/17 05:46:32;;;;;;;6.90;6.20;;;27.70;69.00;;;;;;5027162;28;20530;-71
2022/06/17 05:49:01;;;;;;;8.33;6.30;;;27.90;67.30;;;;;;5030366;28;20561;-68
2022/06/17 05:51:28;;;;;;;8.13;5.63;;;28.10;65.90;;;;;;5003173;28;20893;-67
2022/06/17 05:53:55;;;;;;;9.13;5.20;;;28.70;65.30;;;;;;5021344;28;20974;-69
2022/06/17 05:56:22;;;;;;;5.67;5.03;;;29.10;64.70;;;;;;5020151;28;20454;-70
2022/06/17 05:58:49;;;;;;;8.00;5.70;;;29.40;63.50;;;;;;5016253;28;20508;-68
2022/06/17 06:01:16;;;;;;;9.77;5.40;;;29.20;62.40;;;;;;5028945;28;20530;-66
2022/06/17 06:03:42;;;;;;;6.00;5.47;;;29.00;63.60;;;;;;5014054;28;20515;-69
2022/06/17 06:06:11;;;;;;;7.57;5.37;;;29.50;62.90;;;;;;5015555;28;20559;-66
2022/06/17 06:08:37;;;;;;;6.97;5.00;;;29.30;62.50;;;;;;5015321;28;20465;-70
2022/06/17 06:11:06;;;;;;;8.03;6.10;;;29.40;62.10;;;;;;5015149;28;20974;-66
2022/06/17 06:13:33;;;;;;;8.13;5.30;;;29.30;62.80;;;;;;5025977;28;20466;-68
2022/06/17 06:16:02;;;;;;;6.67;5.97;;;29.00;61.90;;;;;;5029310;28;20446;-68
2022/06/17 06:18:31;;;;;;;6.73;5.07;;;28.90;62.80;;;;;;5022032;28;20814;-71
2022/06/17 06:21:04;;;;;;;5.90;4.90;;;29.10;63.30;;;;;;5012865;28;20554;-69
2022/06/17 06:23:33;;;;;;;5.73;4.50;;;29.70;63.00;;;;;;5021618;28;20519;-67
2022/06/17 06:26:01;;;;;;;8.03;5.10;;;30.00;61.70;;;;;;5008114;28;20448;-68
2022/06/17 06:28:29;;;;;;;6.20;4.63;;;29.80;61.20;;;;;;5019424;28;20483;-72
2022/06/17 06:30:58;;;;;;;7.47;4.43;;;30.00;61.40;;;;;;5031671;28;20561;-69
2022/06/17 06:33:25;;;;;;;6.43;4.60;;;29.60;61.20;;;;;;5028327;28;20443;-69
2022/06/17 06:35:52;;;;;;;5.83;4.67;;;29.70;61.50;;;;;;5017452;28;20453;-70
2022/06/17 06:38:19;;;;;;;8.33;4.03;;;30.10;60.70;;;;;;5019447;28;20531;-71
2022/06/17 06:40:48;;;;;;;5.63;4.10;;;30.00;60.60;;;;;;5019371;28;20534;-70
2022/06/17 06:43:17;;;;;;;5.73;4.00;;;30.10;60.30;;;;;;5026642;28;20443;-70
2022/06/17 06:45:45;;;;;;;7.00;4.13;;;30.50;60.80;;;;;;5020517;28;20495;-72
2022/06/17 06:48:14;;;;;;;5.10;3.97;;;30.80;59.80;;;;;;5020784;28;20527;-73
2022/06/17 06:50:41;;;;;;;7.13;3.83;;;30.90;58.90;;;;;;5026444;28;20497;-73
2022/06/17 06:53:08;;;;;;;5.13;3.90;;;31.30;58.90;;;;;;5024707;28;20447;-69
2022/06/17 06:55:36;;;;;;;4.07;3.53;;;30.90;57.70;;;;;;5022343;28;20539;-71
2022/06/17 06:58:10;;;;;;;4.93;3.87;;;31.70;57.90;;;;;;5020012;28;20455;-70
2022/06/17 07:00:39;;;;;;;5.00;3.73;;;32.30;56.40;;;;;;5019105;28;20570;-73
2022/06/17 07:03:06;;;;;;;4.73;3.47;;;31.60;56.50;;;;;;5018820;28;20541;-73
2022/06/17 07:05:35;;;;;;;5.00;3.43;;;31.30;56.60;;;;;;5010876;28;20452;-71
2022/06/17 07:08:03;;;;;;;6.67;3.57;;;30.50;57.40;;;;;;5017673;28;20451;-74
2022/06/17 07:10:33;;;;;;;5.33;3.40;;;29.90;58.50;;;;;;5014784;28;20947;-69
2022/06/17 07:13:00;;;;;;;5.77;3.83;;;29.30;58.90;;;;;;5025472;28;20495;-72
2022/06/17 07:15:30;;;;;;;5.90;3.77;;;28.10;59.70;;;;;;5018036;28;20439;-72
2022/06/17 07:17:59;;;;;;;5.40;3.37;;;27.50;62.20;;;;;;5009263;28;20543;-69
2022/06/17 07:20:28;;;;;;;5.53;3.43;;;28.20;63.50;;;;;;5011499;28;20981;-71
2022/06/17 07:22:55;;;;;;;6.20;2.83;;;28.60;62.40;;;;;;5022818;28;20474;-71
2022/06/17 07:25:22;;;;;;;5.80;3.30;;;28.90;61.20;;;;;;5011092;28;20449;-72
2022/06/17 07:27:49;;;;;;;4.93;3.97;;;28.60;59.10;;;;;;5027954;28;20442;-71
2022/06/17 07:30:17;;;;;;;4.00;3.43;;;28.00;60.90;;;;;;5027186;28;20495;-72
2022/06/17 07:32:46;;;;;;;6.80;3.63;;;27.40;63.00;;;;;;5030573;28;20451;-71
2022/06/17 07:35:15;;;;;;;5.60;3.73;;;27.20;64.70;;;;;;5045195;28;20443;-69
2022/06/17 07:40:28;;;;;;;4.63;3.43;;;26.70;64.60;;;;;;5025630;28;20454;-73
2022/06/17 07:42:55;;;;;;;7.50;4.10;;;26.60;65.00;;;;;;5030288;28;20507;-71
2022/06/17 07:45:23;;;;;;;6.77;3.87;;;26.40;64.70;;;;;;5027657;28;20466;-73
2022/06/17 07:47:53;;;;;;;9.23;3.70;;;26.60;65.90;;;;;;5033154;28;20439;-74
2022/06/17 07:50:28;;;;;;;5.90;2.83;;;26.70;66.10;;;;;;5028876;28;20492;-73
2022/06/17 07:52:55;;;;;;;3.50;3.17;;;26.70;66.40;;;;;;5035575;28;20687;-72
2022/06/17 07:55:22;;;;;;;6.03;3.13;;;27.10;66.50;;;;;;5024825;28;20495;-74
2022/06/17 07:57:50;;;;;;;5.47;3.57;;;27.70;65.90;;;;;;5032462;28;20553;-71
2022/06/17 08:00:22;;;;;;;5.47;3.80;;;28.10;64.10;;;;;;5029368;28;20699;-69
2022/06/17 08:02:49;;;;;;;4.03;3.10;;;28.30;62.90;;;;;;5032567;28;20434;-71
2022/06/17 08:05:18;;;;;;;5.90;3.53;;;28.90;62.60;;;;;;5036037;28;20460;-71
2022/06/17 08:07:45;;;;;;;7.23;3.80;;;29.60;60.30;;;;;;5026617;28;20452;-71
2022/06/17 08:10:16;;;;;;;5.63;4.03;;;29.90;59.00;;;;;;5028645;28;20487;-72
2022/06/17 08:12:43;;;;;;;8.20;3.83;;;29.90;59.60;;;;;;5019639;28;20425;-71
2022/06/17 08:15:12;;;;;;;5.50;3.40;;;29.90;58.80;;;;;;5034671;28;20435;-69
2022/06/17 08:17:39;;;;;;;6.33;3.60;;;29.20;58.80;;;;;;5031026;28;20428;-68
2022/06/17 08:20:09;;;;;;;4.20;2.90;;;29.00;59.90;;;;;;5035753;28;20469;-71
2022/06/17 08:22:38;;;;;;;5.80;3.30;;;29.50;59.60;;;;;;5036100;28;20459;-74
2022/06/17 08:25:06;;;;;;;4.17;2.73;;;30.20;59.10;;;;;;5027217;28;20452;-68
2022/06/17 08:27:40;;;;;;;4.63;4.23;;;30.50;58.30;;;;;;5032065;28;20442;-72
2022/06/17 08:30:09;;;;;;;3.83;3.07;;;30.40;57.70;;;;;;5026201;28;20610;-73
2022/06/17 08:32:51;;;;;;;2.70;2.50;;;31.10;57.60;;;;;;5022203;28;20619;-70
2022/06/17 08:35:22;;;;;;;5.30;3.70;;;31.40;56.50;;;;;;5042461;28;20456;-70
2022/06/17 08:37:54;;;;;;;5.57;3.27;;;30.50;56.20;;;;;;5034575;28;20440;-72
2022/06/17 08:40:35;;;;;;;3.93;3.20;;;30.00;57.00;;;;;;5033018;28;20692;-72
2022/06/17 08:43:23;;;;;;;5.40;4.10;;;29.50;58.30;;;;;;5024094;28;20443;-70
2022/06/17 08:46:02;;;;;;;7.00;3.90;;;29.10;58.90;;;;;;5032483;28;20427;-71
2022/06/17 08:48:40;;;;;;;4.50;3.90;;;28.20;59.70;;;;;;5023594;28;20442;-72
2022/06/17 08:51:24;;;;;;;5.47;3.90;;;27.90;61.70;;;;;;5033036;28;20498;-69
2022/06/17 08:54:19;;;;;;;5.70;3.43;;;27.60;61.50;;;;;;5038931;28;20493;-69
2022/06/17 08:56:56;;;;;;;5.70;3.60;;;27.60;62.80;;;;;;5032407;28;20531;-73
2022/06/17 08:59:45;;;;;;;4.90;3.80;;;27.70;61.90;;;;;;5037465;28;20450;-69
2022/06/17 09:02:20;;;;;;;5.30;4.17;;;27.10;62.40;;;;;;5032281;28;20480;-69
2022/06/17 09:05:01;;;;;;;4.17;2.90;;;27.10;63.40;;;;;;5026360;28;20498;-69
2022/06/17 09:07:39;;;;;;;4.40;3.40;;;27.60;63.10;;;;;;5017368;28;20436;-70
2022/06/17 09:10:28;;;;;;;5.13;3.43;;;27.70;63.20;;;;;;5029085;28;20532;-69
2022/06/17 09:13:05;;;;;;;4.60;3.57;;;27.80;61.70;;;;;;5036889;28;20435;-69
2022/06/17 09:15:38;;;;;;;7.60;3.50;;;27.60;62.00;;;;;;5030145;28;20601;-72
2022/06/17 09:18:17;;;;;;;6.27;4.00;;;27.70;62.00;;;;;;5034131;28;20450;-71
2022/06/17 09:20:48;;;;;;;4.93;3.53;;;27.40;62.30;;;;;;5030570;28;20467;-71
2022/06/17 09:23:22;;;;;;;5.23;3.83;;;27.60;63.00;;;;;;5028525;28;20649;-72
2022/06/17 09:25:51;;;;;;;4.80;4.10;;;27.10;61.70;;;;;;5031552;28;20486;-71
2022/06/17 09:28:23;;;;;;;8.70;3.90;;;26.50;63.60;;;;;;5019966;28;20460;-72
2022/06/17 09:30:55;;;;;;;7.10;3.80;;;26.70;65.40;;;;;;5031099;28;20581;-72
2022/06/17 09:33:29;;;;;;;5.50;3.70;;;26.80;65.50;;;;;;5032568;28;20458;-71
2022/06/17 09:36:04;;;;;;;5.47;4.00;;;27.30;65.20;;;;;;5024765;28;20445;-72
2022/06/17 09:38:36;;;;;;;5.87;4.40;;;27.80;63.50;;;;;;5023930;28;20438;-71
2022/06/17 09:41:15;;;;;;;5.23;4.03;;;28.10;63.60;;;;;;5023184;28;20548;-68
2022/06/17 09:43:47;;;;;;;8.17;4.70;;;28.80;62.40;;;;;;5038374;28;20659;-71
2022/06/17 09:46:20;;;;;;;5.17;4.13;;;28.90;60.00;;;;;;5020723;28;20680;-69
2022/06/17 09:48:52;;;;;;;4.60;3.87;;;29.00;60.20;;;;;;5033629;28;20627;-73
2022/06/17 09:51:23;;;;;;;5.03;3.20;;;29.20;60.70;;;;;;5030722;28;20637;-71
2022/06/17 09:53:54;;;;;;;5.23;3.20;;;28.60;59.50;;;;;;5039632;28;20435;-69
2022/06/17 09:56:29;;;;;;;3.90;3.50;;;28.20;60.30;;;;;;5031197;28;20518;-72
2022/06/17 09:59:03;;;;;;;5.23;3.67;;;27.80;61.50;;;;;;5036161;28;20443;-74
2022/06/17 10:01:30;;;;;;;5.80;3.90;;;27.80;62.60;;;;;;5032973;28;20432;-70
2022/06/17 10:03:58;;;;;;;4.10;3.70;;;27.20;62.60;;;;;;5041394;28;20443;-72
2022/06/17 10:06:36;;;;;;;7.20;3.40;;;27.20;63.00;;;;;;5035866;28;20432;-73
2022/06/17 10:09:40;;;;;;;4.20;3.50;;;27.10;62.70;;;;;;5028485;28;20456;-73
2022/06/17 10:12:16;;;;;;;5.33;4.07;;;27.00;63.50;;;;;;5030760;28;20474;-71
2022/06/17 10:14:53;;;;;;;6.00;4.07;;;26.80;65.20;;;;;;5046907;28;20464;-73
2022/06/17 10:20:34;;;;;;;8.20;4.37;;;26.20;67.10;;;;;;5039966;28;20510;-72
2022/06/17 10:23:12;;;;;;;6.80;3.60;;;26.50;67.40;;;;;;5036327;28;20434;-69
2022/06/17 10:25:47;;;;;;;4.87;4.17;;;26.70;67.00;;;;;;5036283;28;20549;-69
2022/06/17 10:28:46;;;;;;;7.83;4.77;;;26.90;67.10;;;;;;5035935;28;20609;-70
2022/06/17 10:31:19;;;;;;;7.13;4.60;;;26.50;67.60;;;;;;5035160;28;20479;-71
2022/06/17 10:33:46;;;;;;;5.73;3.37;;;26.60;67.50;;;;;;5036975;28;20518;-70
2022/06/17 10:36:13;;;;;;;5.23;4.73;;;26.60;68.10;;;;;;5035414;28;20692;-71
2022/06/17 10:38:48;;;;;;;8.53;4.10;;;26.80;67.70;;;;;;5034619;28;20468;-69
2022/06/17 10:41:17;;;;;;;13.73;4.90;;;26.70;68.30;;;;;;5029329;28;20455;-67
2022/06/17 10:43:48;;;;;;;9.50;6.40;;;26.50;68.70;;;;;;5040519;28;20499;-70
2022/06/17 10:46:20;;;;;;;4.93;3.90;;;26.30;69.30;;;;;;5028677;28;20427;-71
2022/06/17 10:48:51;;;;;;;6.70;4.97;;;26.50;70.00;;;;;;5035056;28;20451;-69
2022/06/17 10:51:19;;;;;;;4.77;4.37;;;26.60;69.10;;;;;;5031371;28;20475;-71
2022/06/17 10:53:49;;;;;;;6.90;4.70;;;26.80;68.40;;;;;;5032715;28;20435;-72
2022/06/17 10:56:21;;;;;;;6.50;4.67;;;27.30;69.00;;;;;;5021374;28;20710;-71
2022/06/17 10:59:06;;;;;;;10.03;5.33;;;27.40;68.40;;;;;;5039605;28;20695;-73
2022/06/17 11:01:53;;;;;;;6.40;4.40;;;27.50;68.80;;;;;;5037987;28;20442;-70
2022/06/17 11:04:24;;;;;;;6.00;5.40;;;27.90;68.00;;;;;;5038393;28;20438;-71
2022/06/17 11:06:55;;;;;;;9.73;5.27;;;28.50;67.10;;;;;;5027961;28;20566;-71
2022/06/17 11:09:25;;;;;;;10.03;5.60;;;28.80;65.50;;;;;;5033563;28;20463;-72
2022/06/17 11:12:07;;;;;;;6.67;3.63;;;28.90;64.70;;;;;;5028606;28;20503;-74
2022/06/17 11:14:43;;;;;;;6.57;4.80;;;28.20;65.70;;;;;;5020230;28;20447;-72
2022/06/17 11:17:31;;;;;;;4.63;3.07;;;27.60;65.50;;;;;;5035896;28;20590;-70
2022/06/17 11:20:02;;;;;;;7.70;3.77;;;27.90;67.00;;;;;;5023234;28;20483;-70
2022/06/17 11:22:32;;;;;;;6.03;4.00;;;28.10;65.50;;;;;;5028779;28;20427;-71
2022/06/17 11:25:05;;;;;;;9.70;4.33;;;28.20;64.60;;;;;;5027393;28;20494;-69
2022/06/17 11:27:36;;;;;;;14.23;4.30;;;28.10;64.60;;;;;;5041568;28;20450;-71
2022/06/17 11:30:26;;;;;;;7.40;4.63;;;27.90;65.90;;;;;;5038243;28;20565;-69
2022/06/17 11:32:54;;;;;;;5.67;4.13;;;27.80;65.60;;;;;;5033045;28;20487;-68
2022/06/17 11:35:30;;;;;;;5.03;4.10;;;27.40;65.80;;;;;;5033759;28;20461;-72
2022/06/17 11:38:00;;;;;;;4.80;3.87;;;27.40;66.40;;;;;;5015359;28;20536;-68
2022/06/17 11:40:30;;;;;;;4.07;3.47;;;27.80;65.70;;;;;;5023539;28;20474;-73
2022/06/17 11:42:58;;;;;;;3.80;3.47;;;28.00;65.70;;;;;;5017475;28;20431;-69
2022/06/17 11:45:36;;;;;;;4.50;4.07;;;28.00;66.40;;;;;;5025472;28;20493;-70
2022/06/17 11:48:09;;;;;;;7.23;3.70;;;28.20;65.80;;;;;;5031678;28;20530;-71
2022/06/17 11:50:41;;;;;;;3.97;2.63;;;28.10;66.00;;;;;;5034934;28;20711;-69
2022/06/17 11:53:12;;;;;;;8.60;4.10;;;28.20;66.50;;;;;;5038713;28;20428;-68
2022/06/17 11:55:45;;;;;;;7.83;4.30;;;27.90;66.30;;;;;;5040793;28;20462;-67
2022/06/17 11:58:14;;;;;;;5.53;4.00;;;27.70;66.40;;;;;;5035408;28;20628;-67
2022/06/17 12:00:47;;;;;;;5.40;4.37;;;27.80;66.00;;;;;;5038930;28;20449;-70
2022/06/17 12:03:16;;;;;;;5.43;3.93;;;27.60;66.30;;;;;;5039634;28;20439;-69
2022/06/17 12:05:55;;;;;;;5.10;4.43;;;27.40;66.10;;;;;;5036433;28;20695;-69
2022/06/17 12:08:26;;;;;;;9.53;5.70;;;27.30;66.40;;;;;;5021659;28;20499;-69
2022/06/17 12:10:56;;;;;;;10.17;4.57;;;27.20;66.60;;;;;;5025267;28;20490;-71
2022/06/17 12:13:29;;;;;;;5.73;4.37;;;27.10;67.10;;;;;;5041483;28;20554;-70
2022/06/17 12:16:03;;;;;;;5.93;4.13;;;27.00;67.00;;;;;;5025370;28;20452;-70
2022/06/17 12:18:35;;;;;;;4.97;4.47;;;27.20;67.10;;;;;;5022519;28;20571;-68
2022/06/17 12:21:18;;;;;;;4.90;3.50;;;27.20;67.50;;;;;;5018916;28;20457;-68
2022/06/17 12:23:49;;;;;;;7.37;3.70;;;27.00;67.90;;;;;;5036243;28;20679;-69
2022/06/17 12:26:21;;;;;;;6.50;4.17;;;27.10;68.50;;;;;;5034723;28;20440;-67
2022/06/17 12:29:02;;;;;;;4.40;3.47;;;27.30;68.20;;;;;;5027999;28;20687;-71
2022/06/17 12:31:41;;;;;;;5.83;4.07;;;27.40;67.80;;;;;;5015890;28;20475;-70
2022/06/17 12:34:17;;;;;;;5.50;3.90;;;27.30;67.40;;;;;;5030950;28;20447;-68
2022/06/17 12:36:48;;;;;;;8.80;3.83;;;27.30;67.40;;;;;;5032569;28;20419;-69
2022/06/17 12:39:21;;;;;;;6.13;3.80;;;27.20;68.30;;;;;;5031021;28;20460;-69
2022/06/17 12:42:00;;;;;;;4.70;4.13;;;27.00;68.60;;;;;;5031209;28;20443;-70
2022/06/17 12:44:39;;;;;;;4.87;3.80;;;26.80;69.40;;;;;;5026335;28;20491;-67
2022/06/17 12:47:17;;;;;;;4.73;3.43;;;26.60;69.10;;;;;;5026239;28;20470;-68
2022/06/17 12:55:45;;;;;;;5.20;3.57;;;26.60;68.40;;;;;;5029023;28;20451;-69
2022/06/17 12:58:22;;;;;;;5.83;3.43;;;26.70;67.90;;;;;;5034317;28;20432;-70
2022/06/17 13:00:51;;;;;;;5.37;3.70;;;26.70;68.40;;;;;;5027414;28;20501;-70
2022/06/17 13:03:53;;;;;;;4.23;2.80;;;26.90;68.60;;;;;;5025207;28;20556;-71
2022/06/17 13:06:33;;;;;;;6.60;4.50;;;27.10;68.60;;;;;;5032473;28;20473;-69
2022/06/17 13:09:08;;;;;;;7.33;3.13;;;27.10;67.50;;;;;;5026633;28;20424;-67
2022/06/17 13:11:42;;;;;;;11.07;4.00;;;26.90;67.10;;;;;;5024164;28;20495;-70
2022/06/17 13:14:18;;;;;;;3.90;3.30;;;26.80;67.50;;;;;;5019759;28;20601;-70
2022/06/17 13:16:51;;;;;;;6.73;3.73;;;26.70;67.80;;;;;;5033654;28;20436;-69
2022/06/17 13:19:26;;;;;;;8.40;3.70;;;26.80;68.50;;;;;;5036384;28;20470;-69
2022/06/17 13:22:02;;;;;;;4.67;3.87;;;26.90;67.80;;;;;;5040489;28;20423;-70